createdAt,value
2023-12-07T00:02:28.421Z,12.38
2023-12-07T00:07:31.387Z,16.20
2023-12-07T00:12:34.263Z,15.13
2023-12-07T00:17:37.226Z,12.30
2023-12-07T00:22:40.242Z,12.43
2023-12-07T00:27:43.116Z,12.55
2023-12-07T00:32:45.873Z,12.98
2023-12-07T00:37:48.712Z,15.70
2023-12-07T00:42:51.727Z,16.98
2023-12-07T00:47:55.124Z,16.30
2023-12-07T00:52:58.085Z,15.00
2023-12-07T00:58:02.974Z,13.07
2023-12-07T01:08:08.533Z,13.23
2023-12-07T01:13:11.456Z,14.00
2023-12-07T01:18:14.338Z,15.73
2023-12-07T01:23:17.252Z,14.15
2023-12-07T01:28:20.139Z,13.73
2023-12-07T01:33:23.372Z,14.35
2023-12-07T01:38:26.193Z,12.55
2023-12-07T01:43:29.301Z,11.80
2023-12-07T01:48:32.433Z,14.90
2023-12-07T01:53:35.877Z,15.85
2023-12-07T01:58:39.935Z,13.20
2023-12-07T02:03:43.342Z,13.55
2023-12-07T02:08:46.493Z,14.32
2023-12-07T02:13:50.285Z,14.32
2023-12-07T02:19:10.626Z,16.77
2023-12-07T02:24:18.363Z,14.75
2023-12-07T02:29:21.941Z,14.60
2023-12-07T02:34:24.821Z,14.95
2023-12-07T02:39:28.450Z,13.02
2023-12-07T02:44:31.802Z,14.70
2023-12-07T02:49:35.097Z,16.10
2023-12-07T02:54:38.086Z,15.85
2023-12-07T02:59:40.804Z,14.80
2023-12-07T03:04:43.684Z,16.13
2023-12-07T03:09:46.788Z,14.95
2023-12-07T03:14:50.360Z,14.80
2023-12-07T03:19:53.573Z,16.20
2023-12-07T03:24:56.448Z,14.80
2023-12-07T03:29:59.418Z,14.95
2023-12-07T03:35:02.167Z,13.25
2023-12-07T03:40:07.268Z,15.05
2023-12-07T03:45:10.450Z,16.20
2023-12-07T03:50:13.307Z,13.95
2023-12-07T03:55:16.322Z,12.77
2023-12-07T04:00:19.283Z,16.20
2023-12-07T04:05:22.046Z,15.40
2023-12-07T04:10:25.363Z,14.77
2023-12-07T04:15:28.478Z,14.88
2023-12-07T04:20:31.399Z,15.43
2023-12-07T04:25:34.430Z,15.60
2023-12-07T04:30:37.206Z,15.38
2023-12-07T04:35:40.224Z,14.50
2023-12-07T04:40:43.818Z,14.75
2023-12-07T04:45:46.908Z,13.57
2023-12-07T04:50:49.742Z,15.63
2023-12-07T04:55:52.707Z,13.45
2023-12-07T05:00:56.958Z,13.65
2023-12-07T05:06:00.025Z,15.32
2023-12-07T05:11:02.975Z,15.73
2023-12-07T05:16:08.267Z,15.45
2023-12-07T05:21:11.477Z,14.18
2023-12-07T05:26:14.535Z,15.68
2023-12-07T05:31:20.569Z,15.27
2023-12-07T05:36:23.537Z,14.98
2023-12-07T05:41:27.173Z,17.63
2023-12-07T05:46:30.170Z,15.73
2023-12-07T05:51:33.053Z,14.55
2023-12-07T05:56:36.059Z,17.48
2023-12-07T06:01:39.019Z,15.07
2023-12-07T06:06:42.092Z,14.55
2023-12-07T06:11:44.948Z,16.23
2023-12-07T06:16:47.771Z,15.40
2023-12-07T06:21:50.567Z,18.20
2023-12-07T06:26:53.868Z,18.15
2023-12-07T06:31:57.296Z,17.55
2023-12-07T06:37:00.128Z,13.93
2023-12-07T06:42:03.478Z,15.60
2023-12-07T06:47:06.472Z,15.75
2023-12-07T06:52:09.411Z,15.07
2023-12-07T06:57:12.595Z,14.35
2023-12-07T07:02:15.764Z,18.30
2023-12-07T07:07:19.185Z,17.85
2023-12-07T07:12:23.362Z,16.65
2023-12-07T07:17:26.540Z,14.23
2023-12-07T07:22:29.698Z,16.85
2023-12-07T07:27:33.135Z,15.90
2023-12-07T07:32:37.029Z,14.93
2023-12-07T07:37:40.707Z,15.38
2023-12-07T07:42:43.613Z,19.63
2023-12-07T07:47:46.720Z,16.13
2023-12-07T07:52:49.705Z,15.48
2023-12-07T07:57:52.555Z,15.80
2023-12-07T08:02:55.356Z,15.63
2023-12-07T08:07:58.230Z,15.13
2023-12-07T08:13:01.240Z,15.38
2023-12-07T08:18:04.352Z,16.20
2023-12-07T08:23:07.294Z,13.68
2023-12-07T08:28:11.066Z,14.18
2023-12-07T08:33:15.644Z,17.77
2023-12-07T08:38:18.714Z,15.50
2023-12-07T08:43:25.353Z,15.50
2023-12-07T08:48:28.930Z,15.30
2023-12-07T08:53:31.882Z,17.65
2023-12-07T08:58:34.835Z,20.25
2023-12-07T09:03:39.529Z,18.02
2023-12-07T09:08:42.605Z,16.95
2023-12-07T09:13:46.872Z,16.15
2023-12-07T09:19:06.994Z,17.20
2023-12-07T09:24:14.662Z,14.77
2023-12-07T09:29:17.803Z,16.63
2023-12-07T09:34:20.942Z,18.30
2023-12-07T09:39:25.420Z,15.70
2023-12-07T09:44:29.056Z,17.75
2023-12-07T09:49:32.409Z,18.75
2023-12-07T09:54:36.682Z,19.95
2023-12-07T09:59:42.383Z,19.40
2023-12-07T10:04:46.177Z,19.83
2023-12-07T10:09:49.098Z,20.77
2023-12-07T10:14:52.191Z,18.55
2023-12-07T10:20:10.712Z,20.38
2023-12-07T10:25:14.518Z,20.33
2023-12-07T10:30:17.765Z,22.45
2023-12-07T10:35:24.419Z,20.48
2023-12-07T10:40:27.508Z,18.67
2023-12-07T10:45:32.390Z,19.30
2023-12-07T10:50:45.991Z,22.75
2023-12-07T10:55:57.489Z,20.65
2023-12-07T11:01:02.406Z,16.55
2023-12-07T11:11:27.529Z,19.48
2023-12-07T11:16:43.427Z,21.92
2023-12-07T11:21:46.320Z,18.45
2023-12-07T11:26:49.597Z,17.77
2023-12-07T11:31:58.236Z,18.55
2023-12-07T11:37:01.779Z,20.58
2023-12-07T11:42:26.457Z,18.52
2023-12-07T11:47:30.278Z,20.65
2023-12-07T11:52:33.755Z,19.40
2023-12-07T11:57:37.268Z,22.30
2023-12-07T12:02:40.730Z,19.77
2023-12-07T12:07:44.434Z,18.42
2023-12-07T12:12:47.672Z,18.05
2023-12-07T12:17:53.420Z,19.40
2023-12-07T12:22:56.967Z,20.17
2023-12-07T12:28:06.339Z,19.25
2023-12-07T12:33:09.664Z,20.05
2023-12-07T12:38:20.959Z,21.48
2023-12-07T12:44:51.965Z,20.13
2023-12-07T12:49:55.421Z,18.75
2023-12-07T12:54:59.480Z,17.63
2023-12-07T13:00:14.129Z,19.38
2023-12-07T13:05:19.099Z,18.70
2023-12-07T13:10:22.587Z,18.73
2023-12-07T13:15:27.196Z,19.30
2023-12-07T13:25:33.864Z,19.67
2023-12-07T13:30:38.192Z,17.73
2023-12-07T13:35:48.099Z,18.83
2023-12-07T13:41:04.728Z,19.40
2023-12-07T13:51:41.322Z,18.08
2023-12-07T13:56:56.948Z,20.17
2023-12-07T14:02:05.426Z,20.13
2023-12-07T14:07:15.313Z,18.95
2023-12-07T14:12:30.933Z,20.02
2023-12-07T14:17:47.260Z,20.35
2023-12-07T14:23:22.638Z,30.63
2023-12-07T14:28:37.725Z,24.95
2023-12-07T14:33:57.880Z,30.40
2023-12-07T14:39:15.764Z,28.50
2023-12-07T14:44:28.940Z,43.60
2023-12-07T14:49:34.738Z,22.05
2023-12-07T14:59:46.183Z,22.30
2023-12-07T15:04:50.753Z,25.13
2023-12-07T15:09:53.902Z,19.92
2023-12-07T15:14:57.174Z,30.27
2023-12-07T15:20:00.771Z,32.13
2023-12-07T15:25:06.559Z,33.17
2023-12-07T15:30:12.154Z,23.30
2023-12-07T15:35:15.600Z,20.55
2023-12-07T15:40:18.919Z,16.98
2023-12-07T15:45:22.217Z,16.02
2023-12-07T15:50:26.203Z,15.43
2023-12-07T15:55:32.602Z,15.48
2023-12-07T16:00:36.724Z,18.20
2023-12-07T16:05:43.123Z,18.33
2023-12-07T16:10:46.234Z,16.55
2023-12-07T16:15:51.363Z,15.80
2023-12-07T16:20:55.384Z,17.48
2023-12-07T16:25:58.457Z,20.08
2023-12-07T16:31:02.160Z,16.50
2023-12-07T16:36:13.004Z,17.40
2023-12-07T16:41:26.696Z,17.15
2023-12-07T16:46:29.973Z,17.08
2023-12-07T16:51:37.322Z,21.25
2023-12-07T16:56:45.557Z,18.98
2023-12-07T17:01:54.149Z,17.65
2023-12-07T17:07:00.825Z,17.85
2023-12-07T17:12:05.368Z,20.13
2023-12-07T17:17:11.595Z,20.05
2023-12-07T17:22:17.362Z,17.10
2023-12-07T17:27:22.099Z,17.83
2023-12-07T17:38:19.636Z,18.95
2023-12-07T17:43:23.258Z,18.35
2023-12-07T17:48:27.054Z,19.55
2023-12-07T17:53:30.434Z,20.75
2023-12-07T17:58:33.405Z,21.58
2023-12-07T18:03:37.236Z,23.42
2023-12-07T18:08:40.217Z,18.67
2023-12-07T18:13:43.213Z,19.73
2023-12-07T18:18:46.705Z,18.15
2023-12-07T18:23:49.904Z,17.80
2023-12-07T18:28:53.103Z,18.13
2023-12-07T18:33:56.666Z,20.05
2023-12-07T18:39:00.416Z,19.20
2023-12-07T18:44:05.067Z,17.77
2023-12-07T18:49:09.841Z,17.55
2023-12-07T18:54:14.970Z,17.63
2023-12-07T18:59:18.574Z,18.50
2023-12-07T19:04:22.324Z,17.30
2023-12-07T19:09:25.926Z,15.23
2023-12-07T19:14:29.228Z,18.27
2023-12-07T19:19:33.933Z,18.58
2023-12-07T19:24:37.034Z,15.48
2023-12-07T19:29:41.700Z,15.27
2023-12-07T19:34:44.736Z,15.82
2023-12-07T19:39:47.828Z,18.05
2023-12-07T19:44:51.844Z,17.60
2023-12-07T19:49:55.064Z,14.40
2023-12-07T19:54:59.275Z,15.05
2023-12-07T20:00:02.890Z,12.82
2023-12-07T20:05:09.279Z,13.00
2023-12-07T20:10:12.320Z,14.25
2023-12-07T20:15:15.738Z,14.50
2023-12-07T20:20:19.419Z,15.60
2023-12-07T20:25:24.116Z,12.27
2023-12-07T20:30:30.184Z,15.43
2023-12-07T20:35:34.516Z,14.68
2023-12-07T20:40:38.928Z,11.93
2023-12-07T20:45:42.674Z,14.15
2023-12-07T20:50:47.002Z,14.38
2023-12-07T20:55:50.635Z,11.88
2023-12-07T21:00:54.763Z,10.75
2023-12-07T21:05:59.499Z,12.45
2023-12-07T21:11:05.137Z,13.13
2023-12-07T21:16:09.827Z,13.85
2023-12-07T21:21:13.572Z,13.77
2023-12-07T21:26:16.835Z,15.50
2023-12-07T21:31:23.789Z,14.35
2023-12-07T21:36:26.670Z,16.02
2023-12-07T21:41:29.630Z,13.02
2023-12-07T21:46:32.595Z,15.50
2023-12-07T21:51:35.442Z,15.02
2023-12-07T21:56:38.676Z,17.35
2023-12-07T22:01:41.700Z,16.70
2023-12-07T22:06:44.859Z,13.80
2023-12-07T22:11:47.704Z,13.40
2023-12-07T22:16:50.732Z,16.90
2023-12-07T22:21:53.519Z,16.13
2023-12-07T22:26:56.507Z,17.88
2023-12-07T22:32:00.108Z,16.60
2023-12-07T22:37:03.198Z,17.38
2023-12-07T22:42:06.608Z,14.95
2023-12-07T22:47:09.615Z,18.80
2023-12-07T22:52:12.529Z,18.25
2023-12-07T22:57:15.418Z,17.13
2023-12-07T23:02:18.572Z,18.83
2023-12-07T23:07:22.951Z,18.73
2023-12-07T23:12:25.792Z,18.98
2023-12-07T23:17:29.166Z,18.13
2023-12-07T23:22:32.063Z,18.50
2023-12-07T23:27:35.028Z,17.02
2023-12-07T23:32:37.938Z,14.88
2023-12-07T23:37:40.875Z,16.58
2023-12-07T23:42:43.818Z,15.73
2023-12-07T23:47:47.001Z,18.92
2023-12-07T23:52:50.121Z,16.70
2023-12-07T23:57:53.593Z,17.27
